sensor_id;sensor_type;location;lat;lon;timestamp;temperature;humidity
53926;DHT22;39836;52.754;6.866;2022-12-18T00:01:36;-4.00;78.10
53926;DHT22;39836;52.754;6.866;2022-12-18T00:04:04;-4.00;78.10
53926;DHT22;39836;52.754;6.866;2022-12-18T00:06:30;-4.00;78.00
53926;DHT22;39836;52.754;6.866;2022-12-18T00:08:59;-4.10;78.00
53926;DHT22;39836;52.754;6.866;2022-12-18T00:11:27;-4.10;77.90
53926;DHT22;39836;52.754;6.866;2022-12-18T00:13:55;-4.20;77.90
53926;DHT22;39836;52.754;6.866;2022-12-18T00:16:23;-4.20;77.90
53926;DHT22;39836;52.754;6.866;2022-12-18T00:18:51;-4.20;77.90
53926;DHT22;39836;52.754;6.866;2022-12-18T00:21:17;-4.30;77.90
53926;DHT22;39836;52.754;6.866;2022-12-18T00:23:44;-4.30;77.80
53926;DHT22;39836;52.754;6.866;2022-12-18T00:26:17;-4.40;77.80
53926;DHT22;39836;52.754;6.866;2022-12-18T00:28:44;-4.40;77.80
53926;DHT22;39836;52.754;6.866;2022-12-18T00:31:13;-4.40;77.80
53926;DHT22;39836;52.754;6.866;2022-12-18T00:33:38;-4.40;77.80
53926;DHT22;39836;52.754;6.866;2022-12-18T00:36:20;-4.50;77.80
53926;DHT22;39836;52.754;6.866;2022-12-18T00:38:46;-4.50;77.80
53926;DHT22;39836;52.754;6.866;2022-12-18T00:41:14;-4.60;77.70
53926;DHT22;39836;52.754;6.866;2022-12-18T00:44:00;-4.60;77.70
53926;DHT22;39836;52.754;6.866;2022-12-18T00:46:25;-4.70;77.60
53926;DHT22;39836;52.754;6.866;2022-12-18T00:48:51;-4.90;77.60
53926;DHT22;39836;52.754;6.866;2022-12-18T00:51:17;-4.90;77.50
53926;DHT22;39836;52.754;6.866;2022-12-18T00:53:42;-4.90;77.50
53926;DHT22;39836;52.754;6.866;2022-12-18T00:56:08;-5.00;77.50
53926;DHT22;39836;52.754;6.866;2022-12-18T00:58:34;-5.00;77.40
53926;DHT22;39836;52.754;6.866;2022-12-18T01:00:59;-5.10;77.50
53926;DHT22;39836;52.754;6.866;2022-12-18T01:03:25;-5.10;77.40
53926;DHT22;39836;52.754;6.866;2022-12-18T01:05:50;-5.20;77.40
53926;DHT22;39836;52.754;6.866;2022-12-18T01:08:16;-5.30;77.40
53926;DHT22;39836;52.754;6.866;2022-12-18T01:10:42;-5.30;77.30
53926;DHT22;39836;52.754;6.866;2022-12-18T01:13:08;-5.30;77.30
53926;DHT22;39836;52.754;6.866;2022-12-18T01:15:33;-5.30;77.30
53926;DHT22;39836;52.754;6.866;2022-12-18T01:17:59;-5.40;77.30
53926;DHT22;39836;52.754;6.866;2022-12-18T01:20:25;-5.40;77.30
53926;DHT22;39836;52.754;6.866;2022-12-18T01:22:50;-5.40;77.30
53926;DHT22;39836;52.754;6.866;2022-12-18T01:25:16;-5.40;77.30
53926;DHT22;39836;52.754;6.866;2022-12-18T01:27:42;-5.40;77.40
53926;DHT22;39836;52.754;6.866;2022-12-18T01:30:07;-5.40;77.40
53926;DHT22;39836;52.754;6.866;2022-12-18T01:32:33;-5.40;77.40
53926;DHT22;39836;52.754;6.866;2022-12-18T01:34:59;-5.40;77.40
53926;DHT22;39836;52.754;6.866;2022-12-18T01:37:25;-5.40;77.50
53926;DHT22;39836;52.754;6.866;2022-12-18T01:39:52;-5.40;77.50
53926;DHT22;39836;52.754;6.866;2022-12-18T01:42:20;-5.50;77.50
53926;DHT22;39836;52.754;6.866;2022-12-18T01:47:46;-5.70;77.30
53926;DHT22;39836;52.754;6.866;2022-12-18T01:50:38;-5.80;77.10
53926;DHT22;39836;52.754;6.866;2022-12-18T01:53:14;-5.80;77.20
53926;DHT22;39836;52.754;6.866;2022-12-18T01:55:44;-5.90;77.10
53926;DHT22;39836;52.754;6.866;2022-12-18T01:58:10;-5.90;77.10
53926;DHT22;39836;52.754;6.866;2022-12-18T02:00:36;-6.00;77.10
53926;DHT22;39836;52.754;6.866;2022-12-18T02:03:02;-6.00;77.10
53926;DHT22;39836;52.754;6.866;2022-12-18T02:05:50;-6.00;77.10
53926;DHT22;39836;52.754;6.866;2022-12-18T02:11:33;-6.10;76.90
53926;DHT22;39836;52.754;6.866;2022-12-18T02:17:01;-6.10;77.00
53926;DHT22;39836;52.754;6.866;2022-12-18T02:22:28;-6.10;77.00
53926;DHT22;39836;52.754;6.866;2022-12-18T02:27:31;-6.20;76.90
53926;DHT22;39836;52.754;6.866;2022-12-18T02:29:59;-6.20;76.90
53926;DHT22;39836;52.754;6.866;2022-12-18T02:32:43;-5.50;77.10
53926;DHT22;39836;52.754;6.866;2022-12-18T02:35:17;-6.20;76.90
53926;DHT22;39836;52.754;6.866;2022-12-18T02:37:46;-6.40;76.50
53926;DHT22;39836;52.754;6.866;2022-12-18T02:40:14;-5.60;76.90
53926;DHT22;39836;52.754;6.866;2022-12-18T02:42:41;-6.50;76.60
53926;DHT22;39836;52.754;6.866;2022-12-18T02:45:07;-6.50;76.70
53926;DHT22;39836;52.754;6.866;2022-12-18T02:47:36;-6.50;76.70
53926;DHT22;39836;52.754;6.866;2022-12-18T02:50:48;-6.60;76.70
53926;DHT22;39836;52.754;6.866;2022-12-18T02:55:48;-6.60;76.70
53926;DHT22;39836;52.754;6.866;2022-12-18T02:58:40;-6.60;76.70
53926;DHT22;39836;52.754;6.866;2022-12-18T03:01:27;-6.60;76.70
53926;DHT22;39836;52.754;6.866;2022-12-18T03:04:10;-6.60;76.70
53926;DHT22;39836;52.754;6.866;2022-12-18T03:06:40;-6.60;76.70
53926;DHT22;39836;52.754;6.866;2022-12-18T03:09:11;-6.70;76.70
53926;DHT22;39836;52.754;6.866;2022-12-18T03:11:42;-6.70;76.70
53926;DHT22;39836;52.754;6.866;2022-12-18T03:14:30;-6.70;76.70
53926;DHT22;39836;52.754;6.866;2022-12-18T03:17:02;-6.60;76.80
53926;DHT22;39836;52.754;6.866;2022-12-18T03:19:32;-6.60;76.70
53926;DHT22;39836;52.754;6.866;2022-12-18T03:22:00;-6.60;76.70
53926;DHT22;39836;52.754;6.866;2022-12-18T03:24:29;-6.70;76.70
53926;DHT22;39836;52.754;6.866;2022-12-18T03:27:13;-6.60;76.70
53926;DHT22;39836;52.754;6.866;2022-12-18T03:30:17;-6.70;76.60
53926;DHT22;39836;52.754;6.866;2022-12-18T03:32:50;-6.70;76.60
53926;DHT22;39836;52.754;6.866;2022-12-18T03:35:21;-6.80;76.60
53926;DHT22;39836;52.754;6.866;2022-12-18T03:37:48;-6.80;76.60
53926;DHT22;39836;52.754;6.866;2022-12-18T03:40:14;-6.80;76.60
53926;DHT22;39836;52.754;6.866;2022-12-18T03:43:05;-6.80;76.70
53926;DHT22;39836;52.754;6.866;2022-12-18T03:45:48;-6.80;76.60
53926;DHT22;39836;52.754;6.866;2022-12-18T03:48:20;-6.80;76.60
53926;DHT22;39836;52.754;6.866;2022-12-18T03:50:49;-6.80;76.60
53926;DHT22;39836;52.754;6.866;2022-12-18T03:55:51;-6.80;76.70
53926;DHT22;39836;52.754;6.866;2022-12-18T03:58:20;-6.90;76.50
53926;DHT22;39836;52.754;6.866;2022-12-18T04:00:49;-6.90;76.40
53926;DHT22;39836;52.754;6.866;2022-12-18T04:03:18;-7.00;76.40
53926;DHT22;39836;52.754;6.866;2022-12-18T04:05:46;-7.00;76.40
53926;DHT22;39836;52.754;6.866;2022-12-18T04:08:13;-7.00;76.40
53926;DHT22;39836;52.754;6.866;2022-12-18T04:10:39;-7.00;76.40
53926;DHT22;39836;52.754;6.866;2022-12-18T04:13:05;-7.00;76.40
53926;DHT22;39836;52.754;6.866;2022-12-18T04:15:34;-7.00;76.30
53926;DHT22;39836;52.754;6.866;2022-12-18T04:17:59;-7.00;76.20
53926;DHT22;39836;52.754;6.866;2022-12-18T04:20:25;-7.00;76.20
53926;DHT22;39836;52.754;6.866;2022-12-18T04:22:51;-7.00;76.30
53926;DHT22;39836;52.754;6.866;2022-12-18T04:25:16;-7.00;76.20
53926;DHT22;39836;52.754;6.866;2022-12-18T04:27:42;-7.00;76.20
53926;DHT22;39836;52.754;6.866;2022-12-18T04:30:08;-7.00;76.20
53926;DHT22;39836;52.754;6.866;2022-12-18T04:32:34;-7.00;76.20
53926;DHT22;39836;52.754;6.866;2022-12-18T04:35:00;-7.00;76.30
53926;DHT22;39836;52.754;6.866;2022-12-18T04:37:25;-6.90;76.30
53926;DHT22;39836;52.754;6.866;2022-12-18T04:39:51;-6.90;76.20
53926;DHT22;39836;52.754;6.866;2022-12-18T04:42:17;-6.90;76.30
53926;DHT22;39836;52.754;6.866;2022-12-18T04:44:42;-6.90;76.20
53926;DHT22;39836;52.754;6.866;2022-12-18T04:47:08;-6.90;76.30
53926;DHT22;39836;52.754;6.866;2022-12-18T04:49:34;-6.90;76.30
53926;DHT22;39836;52.754;6.866;2022-12-18T04:51:59;-6.90;76.30
53926;DHT22;39836;52.754;6.866;2022-12-18T04:54:25;-6.90;76.30
53926;DHT22;39836;52.754;6.866;2022-12-18T04:56:51;-6.90;76.20
53926;DHT22;39836;52.754;6.866;2022-12-18T04:59:16;-6.90;76.20
53926;DHT22;39836;52.754;6.866;2022-12-18T05:01:42;-6.90;75.90
53926;DHT22;39836;52.754;6.866;2022-12-18T05:04:08;-7.00;75.80
53926;DHT22;39836;52.754;6.866;2022-12-18T05:06:33;-7.00;75.80
53926;DHT22;39836;52.754;6.866;2022-12-18T05:08:59;-7.10;75.70
53926;DHT22;39836;52.754;6.866;2022-12-18T05:11:25;-7.10;75.70
53926;DHT22;39836;52.754;6.866;2022-12-18T05:13:50;-7.10;75.80
53926;DHT22;39836;52.754;6.866;2022-12-18T05:16:16;-7.00;75.90
53926;DHT22;39836;52.754;6.866;2022-12-18T05:18:42;-7.00;75.80
53926;DHT22;39836;52.754;6.866;2022-12-18T05:21:07;-7.00;75.80
53926;DHT22;39836;52.754;6.866;2022-12-18T05:23:33;-7.00;75.70
53926;DHT22;39836;52.754;6.866;2022-12-18T05:26:03;-7.00;75.70
53926;DHT22;39836;52.754;6.866;2022-12-18T05:28:31;-7.10;75.70
53926;DHT22;39836;52.754;6.866;2022-12-18T05:30:59;-7.10;75.70
53926;DHT22;39836;52.754;6.866;2022-12-18T05:33:28;-7.10;75.50
53926;DHT22;39836;52.754;6.866;2022-12-18T05:35:59;-7.10;75.70
53926;DHT22;39836;52.754;6.866;2022-12-18T05:38:26;-7.10;75.70
53926;DHT22;39836;52.754;6.866;2022-12-18T05:40:52;-7.10;75.60
53926;DHT22;39836;52.754;6.866;2022-12-18T05:43:19;-7.10;75.60
53926;DHT22;39836;52.754;6.866;2022-12-18T05:45:47;-7.10;75.60
53926;DHT22;39836;52.754;6.866;2022-12-18T05:48:14;-7.10;75.60
53926;DHT22;39836;52.754;6.866;2022-12-18T05:50:40;-7.10;75.60
53926;DHT22;39836;52.754;6.866;2022-12-18T05:53:07;-7.10;75.60
53926;DHT22;39836;52.754;6.866;2022-12-18T05:55:37;-7.20;75.50
53926;DHT22;39836;52.754;6.866;2022-12-18T05:58:04;-7.20;75.50
53926;DHT22;39836;52.754;6.866;2022-12-18T06:00:30;-7.20;75.50
53926;DHT22;39836;52.754;6.866;2022-12-18T06:02:58;-7.20;75.50
53926;DHT22;39836;52.754;6.866;2022-12-18T06:05:24;-7.20;75.50
53926;DHT22;39836;52.754;6.866;2022-12-18T06:07:50;-7.20;75.60
53926;DHT22;39836;52.754;6.866;2022-12-18T06:10:16;-6.30;75.80
53926;DHT22;39836;52.754;6.866;2022-12-18T06:12:41;-7.30;75.40
53926;DHT22;39836;52.754;6.866;2022-12-18T06:15:07;-7.20;75.40
53926;DHT22;39836;52.754;6.866;2022-12-18T06:17:34;-7.30;75.40
53926;DHT22;39836;52.754;6.866;2022-12-18T06:19:59;-7.30;75.50
53926;DHT22;39836;52.754;6.866;2022-12-18T06:22:26;-7.30;75.50
53926;DHT22;39836;52.754;6.866;2022-12-18T06:24:52;-7.30;75.50
53926;DHT22;39836;52.754;6.866;2022-12-18T06:27:18;-7.30;75.40
53926;DHT22;39836;52.754;6.866;2022-12-18T06:29:43;-7.40;75.30
53926;DHT22;39836;52.754;6.866;2022-12-18T06:32:09;-7.40;75.20
53926;DHT22;39836;52.754;6.866;2022-12-18T06:34:37;-7.40;75.30
53926;DHT22;39836;52.754;6.866;2022-12-18T06:37:03;-7.40;75.30
53926;DHT22;39836;52.754;6.866;2022-12-18T06:39:28;-7.30;75.30
53926;DHT22;39836;52.754;6.866;2022-12-18T06:41:54;-7.40;75.20
53926;DHT22;39836;52.754;6.866;2022-12-18T06:44:20;-7.30;75.30
53926;DHT22;39836;52.754;6.866;2022-12-18T06:46:46;-7.30;75.20
53926;DHT22;39836;52.754;6.866;2022-12-18T06:49:11;-7.40;75.20
53926;DHT22;39836;52.754;6.866;2022-12-18T06:51:37;-7.40;75.20
53926;DHT22;39836;52.754;6.866;2022-12-18T06:54:03;-7.40;75.20
53926;DHT22;39836;52.754;6.866;2022-12-18T06:56:29;-7.30;75.30
53926;DHT22;39836;52.754;6.866;2022-12-18T06:58:55;-7.30;75.30
53926;DHT22;39836;52.754;6.866;2022-12-18T07:01:21;-7.30;75.30
53926;DHT22;39836;52.754;6.866;2022-12-18T07:03:50;-7.30;75.40
53926;DHT22;39836;52.754;6.866;2022-12-18T07:06:19;-7.30;75.30
53926;DHT22;39836;52.754;6.866;2022-12-18T07:08:46;-7.30;75.30
53926;DHT22;39836;52.754;6.866;2022-12-18T07:11:12;-7.30;75.40
53926;DHT22;39836;52.754;6.866;2022-12-18T07:13:38;-7.30;75.30
53926;DHT22;39836;52.754;6.866;2022-12-18T07:16:09;-7.30;75.30
53926;DHT22;39836;52.754;6.866;2022-12-18T07:18:36;-7.20;75.40
53926;DHT22;39836;52.754;6.866;2022-12-18T07:21:11;-7.20;75.50
53926;DHT22;39836;52.754;6.866;2022-12-18T07:23:37;-7.30;75.30
53926;DHT22;39836;52.754;6.866;2022-12-18T07:26:07;-7.30;75.20
53926;DHT22;39836;52.754;6.866;2022-12-18T07:28:34;-7.20;75.40
53926;DHT22;39836;52.754;6.866;2022-12-18T07:31:09;-7.20;75.40
53926;DHT22;39836;52.754;6.866;2022-12-18T07:33:35;-7.20;75.30
53926;DHT22;39836;52.754;6.866;2022-12-18T07:36:02;-7.10;75.40
53926;DHT22;39836;52.754;6.866;2022-12-18T07:38:30;-7.10;75.40
53926;DHT22;39836;52.754;6.866;2022-12-18T07:41:01;-7.10;75.30
53926;DHT22;39836;52.754;6.866;2022-12-18T07:43:27;-7.10;75.30
53926;DHT22;39836;52.754;6.866;2022-12-18T07:45:52;-7.10;75.20
53926;DHT22;39836;52.754;6.866;2022-12-18T07:48:18;-7.00;75.20
53926;DHT22;39836;52.754;6.866;2022-12-18T07:50:44;-7.00;75.10
53926;DHT22;39836;52.754;6.866;2022-12-18T07:53:09;-7.00;75.30
53926;DHT22;39836;52.754;6.866;2022-12-18T07:55:35;-6.90;75.20
53926;DHT22;39836;52.754;6.866;2022-12-18T07:58:02;-6.90;75.20
53926;DHT22;39836;52.754;6.866;2022-12-18T08:00:28;-6.80;75.20
53926;DHT22;39836;52.754;6.866;2022-12-18T08:02:54;-6.70;75.30
53926;DHT22;39836;52.754;6.866;2022-12-18T08:05:19;-6.60;75.20
53926;DHT22;39836;52.754;6.866;2022-12-18T08:07:46;-6.60;75.10
53926;DHT22;39836;52.754;6.866;2022-12-18T08:10:12;-6.50;75.10
53926;DHT22;39836;52.754;6.866;2022-12-18T08:12:38;-6.50;75.20
53926;DHT22;39836;52.754;6.866;2022-12-18T08:15:04;-6.40;75.00
53926;DHT22;39836;52.754;6.866;2022-12-18T08:17:30;-6.30;75.20
53926;DHT22;39836;52.754;6.866;2022-12-18T08:19:55;-6.30;75.10
53926;DHT22;39836;52.754;6.866;2022-12-18T08:22:21;-6.30;75.10
53926;DHT22;39836;52.754;6.866;2022-12-18T08:24:47;-6.20;75.20
53926;DHT22;39836;52.754;6.866;2022-12-18T08:27:13;-6.10;75.10
53926;DHT22;39836;52.754;6.866;2022-12-18T08:29:38;-6.10;75.10
53926;DHT22;39836;52.754;6.866;2022-12-18T08:32:04;-6.10;75.10
53926;DHT22;39836;52.754;6.866;2022-12-18T08:34:30;-6.00;75.10
53926;DHT22;39836;52.754;6.866;2022-12-18T08:36:55;-5.90;75.10
53926;DHT22;39836;52.754;6.866;2022-12-18T08:39:21;-5.90;75.10
53926;DHT22;39836;52.754;6.866;2022-12-18T08:41:46;-5.80;75.10
53926;DHT22;39836;52.754;6.866;2022-12-18T08:44:32;-5.40;75.10
53926;DHT22;39836;52.754;6.866;2022-12-18T08:47:05;-5.80;75.10
53926;DHT22;39836;52.754;6.866;2022-12-18T08:49:30;-5.60;75.10
53926;DHT22;39836;52.754;6.866;2022-12-18T08:51:56;-5.50;75.00
53926;DHT22;39836;52.754;6.866;2022-12-18T08:54:23;-5.40;75.00
53926;DHT22;39836;52.754;6.866;2022-12-18T08:56:49;-5.40;74.90
53926;DHT22;39836;52.754;6.866;2022-12-18T08:59:18;-5.30;74.90
53926;DHT22;39836;52.754;6.866;2022-12-18T09:01:45;-5.20;75.00
53926;DHT22;39836;52.754;6.866;2022-12-18T09:04:11;-5.20;75.00
53926;DHT22;39836;52.754;6.866;2022-12-18T09:06:37;-5.20;74.90
53926;DHT22;39836;52.754;6.866;2022-12-18T09:09:04;-5.10;75.10
53926;DHT22;39836;52.754;6.866;2022-12-18T09:11:31;-5.00;75.00
53926;DHT22;39836;52.754;6.866;2022-12-18T09:13:58;-4.90;75.20
53926;DHT22;39836;52.754;6.866;2022-12-18T09:16:26;-4.80;75.10
53926;DHT22;39836;52.754;6.866;2022-12-18T09:18:56;-4.60;74.90
53926;DHT22;39836;52.754;6.866;2022-12-18T09:21:26;-4.50;74.90
53926;DHT22;39836;52.754;6.866;2022-12-18T09:23:55;-4.40;75.00
53926;DHT22;39836;52.754;6.866;2022-12-18T09:26:23;-4.30;74.60
53926;DHT22;39836;52.754;6.866;2022-12-18T09:28:49;-4.30;74.50
53926;DHT22;39836;52.754;6.866;2022-12-18T09:31:17;-4.20;74.70
53926;DHT22;39836;52.754;6.866;2022-12-18T09:33:43;-4.20;74.70
53926;DHT22;39836;52.754;6.866;2022-12-18T09:36:12;-4.10;74.40
53926;DHT22;39836;52.754;6.866;2022-12-18T09:38:38;-4.00;74.40
53926;DHT22;39836;52.754;6.866;2022-12-18T09:41:42;-3.90;74.30
53926;DHT22;39836;52.754;6.866;2022-12-18T09:49:38;-3.80;74.30
53926;DHT22;39836;52.754;6.866;2022-12-18T09:52:27;-3.70;74.70
53926;DHT22;39836;52.754;6.866;2022-12-18T09:55:11;-3.70;74.30
53926;DHT22;39836;52.754;6.866;2022-12-18T09:57:45;-3.60;74.40
53926;DHT22;39836;52.754;6.866;2022-12-18T10:00:20;-3.60;74.50
53926;DHT22;39836;52.754;6.866;2022-12-18T10:02:46;-3.50;74.60
53926;DHT22;39836;52.754;6.866;2022-12-18T10:05:16;-3.50;74.40
53926;DHT22;39836;52.754;6.866;2022-12-18T10:08:05;-3.50;74.60
53926;DHT22;39836;52.754;6.866;2022-12-18T10:10:53;-3.40;74.10
53926;DHT22;39836;52.754;6.866;2022-12-18T10:20:49;-3.10;74.30
53926;DHT22;39836;52.754;6.866;2022-12-18T10:26:07;-3.10;74.30
53926;DHT22;39836;52.754;6.866;2022-12-18T10:28:38;-3.10;74.40
53926;DHT22;39836;52.754;6.866;2022-12-18T10:33:39;-3.10;74.10
53926;DHT22;39836;52.754;6.866;2022-12-18T10:36:04;-3.10;74.30
53926;DHT22;39836;52.754;6.866;2022-12-18T10:38:31;-3.10;74.20
53926;DHT22;39836;52.754;6.866;2022-12-18T10:41:00;-3.10;74.40
53926;DHT22;39836;52.754;6.866;2022-12-18T10:48:54;-3.00;74.50
53926;DHT22;39836;52.754;6.866;2022-12-18T10:51:28;-2.80;74.50
53926;DHT22;39836;52.754;6.866;2022-12-18T10:54:03;-2.80;74.90
53926;DHT22;39836;52.754;6.866;2022-12-18T10:56:32;-2.80;74.60
53926;DHT22;39836;52.754;6.866;2022-12-18T10:59:08;-2.80;74.60
53926;DHT22;39836;52.754;6.866;2022-12-18T11:02:07;-2.70;74.60
53926;DHT22;39836;52.754;6.866;2022-12-18T11:04:51;-2.70;74.30
53926;DHT22;39836;52.754;6.866;2022-12-18T11:07:17;-2.60;74.50
53926;DHT22;39836;52.754;6.866;2022-12-18T11:09:43;-2.60;74.90
53926;DHT22;39836;52.754;6.866;2022-12-18T11:12:19;-2.60;75.00
53926;DHT22;39836;52.754;6.866;2022-12-18T11:14:52;-2.60;75.00
53926;DHT22;39836;52.754;6.866;2022-12-18T11:17:33;-2.60;74.80
53926;DHT22;39836;52.754;6.866;2022-12-18T11:20:03;-2.50;75.10
53926;DHT22;39836;52.754;6.866;2022-12-18T11:22:34;-2.50;74.90
53926;DHT22;39836;52.754;6.866;2022-12-18T11:27:39;-2.50;74.60
53926;DHT22;39836;52.754;6.866;2022-12-18T11:33:26;-2.50;74.80
53926;DHT22;39836;52.754;6.866;2022-12-18T11:35:55;-2.40;74.80
53926;DHT22;39836;52.754;6.866;2022-12-18T11:38:28;-2.40;74.60
53926;DHT22;39836;52.754;6.866;2022-12-18T11:41:07;-2.40;74.80
53926;DHT22;39836;52.754;6.866;2022-12-18T11:43:42;-2.30;74.80
53926;DHT22;39836;52.754;6.866;2022-12-18T11:46:17;-2.30;74.70
53926;DHT22;39836;52.754;6.866;2022-12-18T11:49:07;-2.30;74.70
53926;DHT22;39836;52.754;6.866;2022-12-18T11:51:51;-2.20;74.70
53926;DHT22;39836;52.754;6.866;2022-12-18T11:54:19;-2.20;74.60
53926;DHT22;39836;52.754;6.866;2022-12-18T11:56:53;-2.20;74.60
53926;DHT22;39836;52.754;6.866;2022-12-18T11:59:34;-2.20;74.70
53926;DHT22;39836;52.754;6.866;2022-12-18T12:02:42;-2.20;74.50
53926;DHT22;39836;52.754;6.866;2022-12-18T12:05:34;-2.10;74.40
53926;DHT22;39836;52.754;6.866;2022-12-18T12:08:43;-2.00;74.40
53926;DHT22;39836;52.754;6.866;2022-12-18T12:11:33;-2.00;74.00
53926;DHT22;39836;52.754;6.866;2022-12-18T12:14:20;-2.00;74.40
53926;DHT22;39836;52.754;6.866;2022-12-18T12:17:21;-1.90;74.40
53926;DHT22;39836;52.754;6.866;2022-12-18T12:31:19;-1.80;74.20
53926;DHT22;39836;52.754;6.866;2022-12-18T12:39:31;-1.80;73.80
53926;DHT22;39836;52.754;6.866;2022-12-18T12:41:58;-1.80;74.00
53926;DHT22;39836;52.754;6.866;2022-12-18T12:44:49;-1.80;73.90
53926;DHT22;39836;52.754;6.866;2022-12-18T12:47:25;-1.80;74.20
53926;DHT22;39836;52.754;6.866;2022-12-18T12:49:53;-1.70;74.20
53926;DHT22;39836;52.754;6.866;2022-12-18T12:52:35;-1.70;74.30
53926;DHT22;39836;52.754;6.866;2022-12-18T12:55:05;-1.70;74.10
53926;DHT22;39836;52.754;6.866;2022-12-18T12:57:40;-1.70;74.40
53926;DHT22;39836;52.754;6.866;2022-12-18T13:00:16;-1.70;74.00
53926;DHT22;39836;52.754;6.866;2022-12-18T13:02:59;-1.70;74.20
53926;DHT22;39836;52.754;6.866;2022-12-18T13:08:26;-1.70;74.10
53926;DHT22;39836;52.754;6.866;2022-12-18T13:10:53;-1.70;74.20
53926;DHT22;39836;52.754;6.866;2022-12-18T13:13:56;-1.70;74.00
53926;DHT22;39836;52.754;6.866;2022-12-18T13:16:25;-1.70;74.30
53926;DHT22;39836;52.754;6.866;2022-12-18T13:18:55;-1.70;74.30
53926;DHT22;39836;52.754;6.866;2022-12-18T13:21:30;-1.70;74.10
53926;DHT22;39836;52.754;6.866;2022-12-18T13:23:56;-1.70;74.00
53926;DHT22;39836;52.754;6.866;2022-12-18T13:26:39;-1.70;74.10
53926;DHT22;39836;52.754;6.866;2022-12-18T13:29:05;-1.70;74.20
53926;DHT22;39836;52.754;6.866;2022-12-18T13:34:23;-1.70;74.10
53926;DHT22;39836;52.754;6.866;2022-12-18T13:36:50;-1.70;74.20
53926;DHT22;39836;52.754;6.866;2022-12-18T13:41:48;-1.70;74.00
53926;DHT22;39836;52.754;6.866;2022-12-18T13:44:37;-1.70;74.10
53926;DHT22;39836;52.754;6.866;2022-12-18T13:49:50;-1.70;74.30
53926;DHT22;39836;52.754;6.866;2022-12-18T13:52:22;-0.80;74.50
53926;DHT22;39836;52.754;6.866;2022-12-18T13:54:55;-1.70;74.00
53926;DHT22;39836;52.754;6.866;2022-12-18T13:57:29;-1.70;74.30
53926;DHT22;39836;52.754;6.866;2022-12-18T13:59:56;-1.70;74.30
53926;DHT22;39836;52.754;6.866;2022-12-18T14:02:24;-0.20;74.90
53926;DHT22;39836;52.754;6.866;2022-12-18T14:04:52;-1.70;74.30
53926;DHT22;39836;52.754;6.866;2022-12-18T14:07:21;-1.70;74.50
53926;DHT22;39836;52.754;6.866;2022-12-18T14:09:50;-1.80;74.40
53926;DHT22;39836;52.754;6.866;2022-12-18T14:12:36;-1.80;74.40
53926;DHT22;39836;52.754;6.866;2022-12-18T14:15:31;-1.80;74.40
53926;DHT22;39836;52.754;6.866;2022-12-18T14:18:00;-1.80;74.60
53926;DHT22;39836;52.754;6.866;2022-12-18T14:20:28;-1.90;74.50
53926;DHT22;39836;52.754;6.866;2022-12-18T14:22:56;-1.90;74.50
53926;DHT22;39836;52.754;6.866;2022-12-18T14:25:24;-2.50;74.40
53926;DHT22;39836;52.754;6.866;2022-12-18T14:27:52;-1.90;74.50
53926;DHT22;39836;52.754;6.866;2022-12-18T14:30:32;-1.90;74.70
53926;DHT22;39836;52.754;6.866;2022-12-18T14:33:10;-2.00;74.70
53926;DHT22;39836;52.754;6.866;2022-12-18T14:35:42;-2.00;74.70
53926;DHT22;39836;52.754;6.866;2022-12-18T14:41:18;-2.00;74.80
53926;DHT22;39836;52.754;6.866;2022-12-18T14:43:47;-2.00;74.70
53926;DHT22;39836;52.754;6.866;2022-12-18T14:48:51;-2.00;74.70
53926;DHT22;39836;52.754;6.866;2022-12-18T14:51:20;-2.00;74.60
53926;DHT22;39836;52.754;6.866;2022-12-18T14:54:03;-2.00;74.80
53926;DHT22;39836;52.754;6.866;2022-12-18T14:56:41;-2.00;74.90
53926;DHT22;39836;52.754;6.866;2022-12-18T14:59:16;-2.00;74.80
53926;DHT22;39836;52.754;6.866;2022-12-18T15:04:33;-2.00;74.90
53926;DHT22;39836;52.754;6.866;2022-12-18T15:09:43;-2.10;74.90
53926;DHT22;39836;52.754;6.866;2022-12-18T15:12:39;-2.00;74.90
53926;DHT22;39836;52.754;6.866;2022-12-18T15:15:46;-2.10;75.00
53926;DHT22;39836;52.754;6.866;2022-12-18T15:18:12;-2.10;75.10
53926;DHT22;39836;52.754;6.866;2022-12-18T15:25:42;-2.10;75.00
53926;DHT22;39836;52.754;6.866;2022-12-18T15:28:23;-2.10;75.10
53926;DHT22;39836;52.754;6.866;2022-12-18T15:33:36;-2.10;75.00
53926;DHT22;39836;52.754;6.866;2022-12-18T15:36:05;-2.00;75.00
53926;DHT22;39836;52.754;6.866;2022-12-18T15:38:33;-2.00;75.00
53926;DHT22;39836;52.754;6.866;2022-12-18T15:40:59;-2.10;74.90
53926;DHT22;39836;52.754;6.866;2022-12-18T15:43:26;-2.10;75.10
53926;DHT22;39836;52.754;6.866;2022-12-18T15:46:02;-2.10;75.00
53926;DHT22;39836;52.754;6.866;2022-12-18T15:48:29;-2.10;75.00
53926;DHT22;39836;52.754;6.866;2022-12-18T15:50:56;-2.30;75.10
53926;DHT22;39836;52.754;6.866;2022-12-18T15:53:25;-2.00;75.20
53926;DHT22;39836;52.754;6.866;2022-12-18T15:55:52;-2.00;75.20
53926;DHT22;39836;52.754;6.866;2022-12-18T15:58:36;-2.10;75.10
53926;DHT22;39836;52.754;6.866;2022-12-18T16:01:02;-2.00;75.40
53926;DHT22;39836;52.754;6.866;2022-12-18T16:03:28;-2.10;75.20
53926;DHT22;39836;52.754;6.866;2022-12-18T16:05:54;-2.00;75.20
53926;DHT22;39836;52.754;6.866;2022-12-18T16:08:19;-2.00;75.30
53926;DHT22;39836;52.754;6.866;2022-12-18T16:10:45;-2.00;75.30
53926;DHT22;39836;52.754;6.866;2022-12-18T16:13:13;-2.00;75.10
53926;DHT22;39836;52.754;6.866;2022-12-18T16:15:41;-2.00;75.20
53926;DHT22;39836;52.754;6.866;2022-12-18T16:18:07;-2.00;75.30
53926;DHT22;39836;52.754;6.866;2022-12-18T16:20:32;-2.00;75.30
53926;DHT22;39836;52.754;6.866;2022-12-18T16:22:58;-2.00;75.20
53926;DHT22;39836;52.754;6.866;2022-12-18T16:25:27;-2.00;75.10
53926;DHT22;39836;52.754;6.866;2022-12-18T16:27:53;-2.00;75.00
53926;DHT22;39836;52.754;6.866;2022-12-18T16:30:28;-2.00;75.10
53926;DHT22;39836;52.754;6.866;2022-12-18T16:32:59;-2.00;75.10
53926;DHT22;39836;52.754;6.866;2022-12-18T16:35:26;-2.00;74.90
53926;DHT22;39836;52.754;6.866;2022-12-18T16:37:52;-2.00;75.20
53926;DHT22;39836;52.754;6.866;2022-12-18T16:40:18;-1.90;75.30
53926;DHT22;39836;52.754;6.866;2022-12-18T16:42:45;-1.90;75.20
53926;DHT22;39836;52.754;6.866;2022-12-18T16:45:13;-1.90;75.30
53926;DHT22;39836;52.754;6.866;2022-12-18T16:47:40;-1.90;75.00
53926;DHT22;39836;52.754;6.866;2022-12-18T16:50:06;-1.90;74.90
53926;DHT22;39836;52.754;6.866;2022-12-18T16:52:33;-1.80;74.90
53926;DHT22;39836;52.754;6.866;2022-12-18T16:54:59;-1.80;75.10
53926;DHT22;39836;52.754;6.866;2022-12-18T16:57:25;-1.80;75.00
53926;DHT22;39836;52.754;6.866;2022-12-18T16:59:51;-1.70;74.90
53926;DHT22;39836;52.754;6.866;2022-12-18T17:02:19;-1.70;74.80
53926;DHT22;39836;52.754;6.866;2022-12-18T17:04:45;-1.70;74.70
53926;DHT22;39836;52.754;6.866;2022-12-18T17:07:11;-1.70;74.70
53926;DHT22;39836;52.754;6.866;2022-12-18T17:09:37;-1.70;74.70
53926;DHT22;39836;52.754;6.866;2022-12-18T17:12:03;-1.70;74.50
53926;DHT22;39836;52.754;6.866;2022-12-18T17:14:29;-1.60;74.80
53926;DHT22;39836;52.754;6.866;2022-12-18T17:16:55;-1.70;74.60
53926;DHT22;39836;52.754;6.866;2022-12-18T17:19:25;-1.60;74.70
53926;DHT22;39836;52.754;6.866;2022-12-18T17:21:51;-1.60;74.50
53926;DHT22;39836;52.754;6.866;2022-12-18T17:24:17;-1.60;74.40
53926;DHT22;39836;52.754;6.866;2022-12-18T17:26:43;-1.60;74.20